sensor_id;sensor_type;location;lat;lon;timestamp;P1;durP1;ratioP1;P2;durP2;ratioP2
58615;SDS011;44385;51.992;4.206;2022-09-09T00:01:37;10.82;;;8.32;;
58615;SDS011;44385;51.992;4.206;2022-09-09T00:04:09;19.17;;;10.70;;
58615;SDS011;44385;51.992;4.206;2022-09-09T00:06:43;20.52;;;12.27;;
58615;SDS011;44385;51.992;4.206;2022-09-09T00:09:10;19.38;;;11.63;;
58615;SDS011;44385;51.992;4.206;2022-09-09T00:11:39;19.40;;;13.00;;
58615;SDS011;44385;51.992;4.206;2022-09-09T00:14:08;18.67;;;14.25;;
58615;SDS011;44385;51.992;4.206;2022-09-09T00:16:40;20.20;;;16.08;;
58615;SDS011;44385;51.992;4.206;2022-09-09T00:19:17;20.40;;;15.57;;
58615;SDS011;44385;51.992;4.206;2022-09-09T00:21:47;21.60;;;19.40;;
58615;SDS011;44385;51.992;4.206;2022-09-09T00:24:18;24.15;;;17.92;;
58615;SDS011;44385;51.992;4.206;2022-09-09T00:26:47;18.80;;;15.85;;
58615;SDS011;44385;51.992;4.206;2022-09-09T00:29:18;20.00;;;15.68;;
58615;SDS011;44385;51.992;4.206;2022-09-09T00:31:48;23.35;;;14.68;;
58615;SDS011;44385;51.992;4.206;2022-09-09T00:34:16;16.92;;;14.30;;
58615;SDS011;44385;51.992;4.206;2022-09-09T00:36:44;18.30;;;14.55;;
58615;SDS011;44385;51.992;4.206;2022-09-09T00:39:23;21.50;;;16.20;;
58615;SDS011;44385;51.992;4.206;2022-09-09T00:41:57;22.23;;;15.65;;
58615;SDS011;44385;51.992;4.206;2022-09-09T00:44:30;20.15;;;14.27;;
58615;SDS011;44385;51.992;4.206;2022-09-09T00:47:15;26.08;;;15.15;;
58615;SDS011;44385;51.992;4.206;2022-09-09T00:49:46;19.90;;;15.90;;
58615;SDS011;44385;51.992;4.206;2022-09-09T00:52:17;22.33;;;14.20;;
58615;SDS011;44385;51.992;4.206;2022-09-09T00:54:51;18.67;;;13.48;;
58615;SDS011;44385;51.992;4.206;2022-09-09T00:57:23;16.73;;;12.13;;
58615;SDS011;44385;51.992;4.206;2022-09-09T00:59:55;20.65;;;12.73;;
58615;SDS011;44385;51.992;4.206;2022-09-09T01:02:28;18.17;;;11.95;;
58615;SDS011;44385;51.992;4.206;2022-09-09T01:04:55;16.58;;;11.00;;
58615;SDS011;44385;51.992;4.206;2022-09-09T01:07:27;14.15;;;10.23;;
58615;SDS011;44385;51.992;4.206;2022-09-09T01:09:55;15.15;;;10.20;;
58615;SDS011;44385;51.992;4.206;2022-09-09T01:12:26;15.68;;;9.38;;
58615;SDS011;44385;51.992;4.206;2022-09-09T01:14:55;14.30;;;8.98;;
58615;SDS011;44385;51.992;4.206;2022-09-09T01:17:23;16.48;;;7.97;;
58615;SDS011;44385;51.992;4.206;2022-09-09T01:19:57;16.40;;;8.52;;
58615;SDS011;44385;51.992;4.206;2022-09-09T01:22:26;12.90;;;7.45;;
58615;SDS011;44385;51.992;4.206;2022-09-09T01:25:07;18.25;;;8.30;;
58615;SDS011;44385;51.992;4.206;2022-09-09T01:27:39;14.68;;;8.80;;
58615;SDS011;44385;51.992;4.206;2022-09-09T01:30:07;18.85;;;9.40;;
58615;SDS011;44385;51.992;4.206;2022-09-09T01:32:39;14.00;;;9.80;;
58615;SDS011;44385;51.992;4.206;2022-09-09T01:35:06;19.95;;;11.57;;
58615;SDS011;44385;51.992;4.206;2022-09-09T01:37:34;15.15;;;9.90;;
58615;SDS011;44385;51.992;4.206;2022-09-09T01:40:00;13.45;;;9.77;;
58615;SDS011;44385;51.992;4.206;2022-09-09T01:42:27;12.90;;;10.48;;
58615;SDS011;44385;51.992;4.206;2022-09-09T01:44:54;14.85;;;8.90;;
58615;SDS011;44385;51.992;4.206;2022-09-09T01:47:21;10.43;;;7.45;;
58615;SDS011;44385;51.992;4.206;2022-09-09T01:49:47;14.93;;;8.18;;
58615;SDS011;44385;51.992;4.206;2022-09-09T01:52:13;13.73;;;7.05;;
58615;SDS011;44385;51.992;4.206;2022-09-09T01:54:40;11.90;;;8.40;;
58615;SDS011;44385;51.992;4.206;2022-09-09T01:57:08;11.30;;;7.93;;
58615;SDS011;44385;51.992;4.206;2022-09-09T01:59:49;11.57;;;8.90;;
58615;SDS011;44385;51.992;4.206;2022-09-09T02:02:18;14.93;;;9.23;;
58615;SDS011;44385;51.992;4.206;2022-09-09T02:04:45;10.73;;;8.27;;
58615;SDS011;44385;51.992;4.206;2022-09-09T02:07:16;9.52;;;7.25;;
58615;SDS011;44385;51.992;4.206;2022-09-09T02:09:49;10.43;;;7.57;;
58615;SDS011;44385;51.992;4.206;2022-09-09T02:12:17;7.53;;;6.30;;
58615;SDS011;44385;51.992;4.206;2022-09-09T02:14:46;8.57;;;6.07;;
58615;SDS011;44385;51.992;4.206;2022-09-09T02:17:15;10.00;;;4.47;;
58615;SDS011;44385;51.992;4.206;2022-09-09T02:19:48;5.82;;;2.85;;
58615;SDS011;44385;51.992;4.206;2022-09-09T02:22:15;7.70;;;2.72;;
58615;SDS011;44385;51.992;4.206;2022-09-09T02:24:43;5.13;;;2.72;;
58615;SDS011;44385;51.992;4.206;2022-09-09T02:27:11;7.20;;;2.88;;
58615;SDS011;44385;51.992;4.206;2022-09-09T02:29:39;7.00;;;2.90;;
58615;SDS011;44385;51.992;4.206;2022-09-09T02:32:07;7.95;;;3.47;;
58615;SDS011;44385;51.992;4.206;2022-09-09T02:34:35;10.38;;;3.17;;
58615;SDS011;44385;51.992;4.206;2022-09-09T02:37:04;5.10;;;2.95;;
58615;SDS011;44385;51.992;4.206;2022-09-09T02:39:32;7.97;;;3.25;;
58615;SDS011;44385;51.992;4.206;2022-09-09T02:41:59;6.32;;;3.47;;
58615;SDS011;44385;51.992;4.206;2022-09-09T02:44:26;9.05;;;3.33;;
58615;SDS011;44385;51.992;4.206;2022-09-09T02:46:57;6.93;;;3.30;;
58615;SDS011;44385;51.992;4.206;2022-09-09T02:49:27;7.38;;;3.67;;
58615;SDS011;44385;51.992;4.206;2022-09-09T02:51:57;7.07;;;3.78;;
58615;SDS011;44385;51.992;4.206;2022-09-09T02:54:29;5.07;;;4.10;;
58615;SDS011;44385;51.992;4.206;2022-09-09T02:59:22;7.00;;;3.60;;
58615;SDS011;44385;51.992;4.206;2022-09-09T03:01:51;7.05;;;3.92;;
58615;SDS011;44385;51.992;4.206;2022-09-09T03:04:18;7.32;;;3.75;;
58615;SDS011;44385;51.992;4.206;2022-09-09T03:06:45;8.13;;;3.33;;
58615;SDS011;44385;51.992;4.206;2022-09-09T03:09:11;6.28;;;3.30;;
58615;SDS011;44385;51.992;4.206;2022-09-09T03:11:39;14.25;;;4.00;;
58615;SDS011;44385;51.992;4.206;2022-09-09T03:14:05;6.72;;;2.75;;
58615;SDS011;44385;51.992;4.206;2022-09-09T03:16:32;7.57;;;3.67;;
58615;SDS011;44385;51.992;4.206;2022-09-09T03:18:59;6.22;;;3.78;;
58615;SDS011;44385;51.992;4.206;2022-09-09T03:21:25;10.40;;;3.40;;
58615;SDS011;44385;51.992;4.206;2022-09-09T03:23:52;7.28;;;3.42;;
58615;SDS011;44385;51.992;4.206;2022-09-09T03:26:18;8.95;;;4.10;;
58615;SDS011;44385;51.992;4.206;2022-09-09T03:28:46;7.38;;;3.55;;
58615;SDS011;44385;51.992;4.206;2022-09-09T03:31:12;8.48;;;3.22;;
58615;SDS011;44385;51.992;4.206;2022-09-09T03:33:39;8.82;;;3.65;;
58615;SDS011;44385;51.992;4.206;2022-09-09T03:36:06;9.45;;;3.30;;
58615;SDS011;44385;51.992;4.206;2022-09-09T03:38:32;9.90;;;3.35;;
58615;SDS011;44385;51.992;4.206;2022-09-09T03:40:59;7.80;;;3.53;;
58615;SDS011;44385;51.992;4.206;2022-09-09T03:43:27;7.47;;;2.88;;
58615;SDS011;44385;51.992;4.206;2022-09-09T03:45:55;7.57;;;3.55;;
58615;SDS011;44385;51.992;4.206;2022-09-09T03:48:23;8.75;;;3.20;;
58615;SDS011;44385;51.992;4.206;2022-09-09T03:50:50;7.95;;;3.35;;
58615;SDS011;44385;51.992;4.206;2022-09-09T03:53:18;7.78;;;3.50;;
58615;SDS011;44385;51.992;4.206;2022-09-09T03:55:45;12.32;;;3.88;;
58615;SDS011;44385;51.992;4.206;2022-09-09T03:58:12;8.32;;;3.78;;
58615;SDS011;44385;51.992;4.206;2022-09-09T04:00:38;7.35;;;3.25;;
58615;SDS011;44385;51.992;4.206;2022-09-09T04:03:08;8.18;;;3.65;;
58615;SDS011;44385;51.992;4.206;2022-09-09T04:05:35;7.40;;;3.78;;
58615;SDS011;44385;51.992;4.206;2022-09-09T04:08:04;12.63;;;4.28;;
58615;SDS011;44385;51.992;4.206;2022-09-09T04:10:30;9.23;;;3.58;;
58615;SDS011;44385;51.992;4.206;2022-09-09T04:12:57;10.43;;;3.83;;
58615;SDS011;44385;51.992;4.206;2022-09-09T04:15:24;10.98;;;4.07;;
58615;SDS011;44385;51.992;4.206;2022-09-09T04:17:50;12.30;;;4.07;;
58615;SDS011;44385;51.992;4.206;2022-09-09T04:20:18;7.10;;;3.47;;
58615;SDS011;44385;51.992;4.206;2022-09-09T04:22:45;6.78;;;3.45;;
58615;SDS011;44385;51.992;4.206;2022-09-09T04:25:11;8.80;;;3.22;;
58615;SDS011;44385;51.992;4.206;2022-09-09T04:27:37;7.40;;;3.70;;
58615;SDS011;44385;51.992;4.206;2022-09-09T04:30:04;6.38;;;3.00;;
58615;SDS011;44385;51.992;4.206;2022-09-09T04:32:31;5.10;;;2.88;;
58615;SDS011;44385;51.992;4.206;2022-09-09T04:34:58;9.15;;;2.97;;
58615;SDS011;44385;51.992;4.206;2022-09-09T04:37:26;10.90;;;3.22;;
58615;SDS011;44385;51.992;4.206;2022-09-09T04:39:52;5.75;;;2.85;;
58615;SDS011;44385;51.992;4.206;2022-09-09T04:42:18;14.50;;;3.95;;
58615;SDS011;44385;51.992;4.206;2022-09-09T04:44:45;9.10;;;2.72;;
58615;SDS011;44385;51.992;4.206;2022-09-09T04:47:11;9.63;;;2.92;;
58615;SDS011;44385;51.992;4.206;2022-09-09T04:49:39;6.28;;;2.60;;
58615;SDS011;44385;51.992;4.206;2022-09-09T04:52:06;5.40;;;2.78;;
58615;SDS011;44385;51.992;4.206;2022-09-09T04:54:34;13.02;;;4.07;;
58615;SDS011;44385;51.992;4.206;2022-09-09T04:57:00;8.60;;;3.60;;
58615;SDS011;44385;51.992;4.206;2022-09-09T04:59:27;9.57;;;3.53;;
58615;SDS011;44385;51.992;4.206;2022-09-09T05:01:53;7.60;;;2.83;;
58615;SDS011;44385;51.992;4.206;2022-09-09T05:04:20;9.85;;;3.33;;
58615;SDS011;44385;51.992;4.206;2022-09-09T05:06:47;11.88;;;3.63;;
58615;SDS011;44385;51.992;4.206;2022-09-09T05:09:13;8.10;;;3.33;;
58615;SDS011;44385;51.992;4.206;2022-09-09T05:11:41;10.93;;;3.58;;
58615;SDS011;44385;51.992;4.206;2022-09-09T05:14:07;12.20;;;3.63;;
58615;SDS011;44385;51.992;4.206;2022-09-09T05:16:36;10.55;;;3.55;;
58615;SDS011;44385;51.992;4.206;2022-09-09T05:19:03;9.82;;;3.65;;
58615;SDS011;44385;51.992;4.206;2022-09-09T05:21:29;12.18;;;4.88;;
58615;SDS011;44385;51.992;4.206;2022-09-09T05:23:56;8.15;;;3.60;;
58615;SDS011;44385;51.992;4.206;2022-09-09T05:26:22;12.77;;;3.70;;
58615;SDS011;44385;51.992;4.206;2022-09-09T05:28:53;9.90;;;3.70;;
58615;SDS011;44385;51.992;4.206;2022-09-09T05:31:20;9.77;;;3.60;;
58615;SDS011;44385;51.992;4.206;2022-09-09T05:33:47;9.05;;;4.22;;
58615;SDS011;44385;51.992;4.206;2022-09-09T05:36:15;11.43;;;4.32;;
58615;SDS011;44385;51.992;4.206;2022-09-09T05:38:42;8.88;;;3.63;;
58615;SDS011;44385;51.992;4.206;2022-09-09T05:41:09;8.55;;;3.47;;
58615;SDS011;44385;51.992;4.206;2022-09-09T05:43:36;9.70;;;3.50;;
58615;SDS011;44385;51.992;4.206;2022-09-09T05:46:05;10.65;;;3.90;;
58615;SDS011;44385;51.992;4.206;2022-09-09T05:48:33;12.23;;;3.60;;
58615;SDS011;44385;51.992;4.206;2022-09-09T05:51:00;9.20;;;2.97;;
58615;SDS011;44385;51.992;4.206;2022-09-09T05:53:27;11.32;;;3.58;;
58615;SDS011;44385;51.992;4.206;2022-09-09T05:56:00;6.13;;;2.95;;
58615;SDS011;44385;51.992;4.206;2022-09-09T05:58:28;11.00;;;4.00;;
58615;SDS011;44385;51.992;4.206;2022-09-09T06:00:59;12.10;;;4.05;;
58615;SDS011;44385;51.992;4.206;2022-09-09T06:03:28;16.02;;;4.13;;
58615;SDS011;44385;51.992;4.206;2022-09-09T06:05:57;9.80;;;3.50;;
58615;SDS011;44385;51.992;4.206;2022-09-09T06:08:24;11.30;;;3.90;;
58615;SDS011;44385;51.992;4.206;2022-09-09T06:10:50;11.15;;;3.05;;
58615;SDS011;44385;51.992;4.206;2022-09-09T06:13:17;13.00;;;3.38;;
58615;SDS011;44385;51.992;4.206;2022-09-09T06:15:48;8.07;;;3.35;;
58615;SDS011;44385;51.992;4.206;2022-09-09T06:18:15;15.13;;;4.15;;
58615;SDS011;44385;51.992;4.206;2022-09-09T06:20:52;11.23;;;3.83;;
58615;SDS011;44385;51.992;4.206;2022-09-09T06:23:18;11.30;;;4.25;;
58615;SDS011;44385;51.992;4.206;2022-09-09T06:25:45;10.73;;;4.75;;
58615;SDS011;44385;51.992;4.206;2022-09-09T06:28:11;13.25;;;4.80;;
58615;SDS011;44385;51.992;4.206;2022-09-09T06:30:38;11.32;;;4.85;;
58615;SDS011;44385;51.992;4.206;2022-09-09T06:33:05;13.35;;;5.38;;
58615;SDS011;44385;51.992;4.206;2022-09-09T06:35:31;10.80;;;5.13;;
58615;SDS011;44385;51.992;4.206;2022-09-09T06:37:59;8.43;;;4.80;;
58615;SDS011;44385;51.992;4.206;2022-09-09T06:40:25;8.32;;;4.68;;
58615;SDS011;44385;51.992;4.206;2022-09-09T06:42:51;8.68;;;4.15;;
58615;SDS011;44385;51.992;4.206;2022-09-09T06:45:18;11.25;;;5.57;;
58615;SDS011;44385;51.992;4.206;2022-09-09T06:47:44;11.70;;;5.88;;
58615;SDS011;44385;51.992;4.206;2022-09-09T06:50:11;10.88;;;5.50;;
58615;SDS011;44385;51.992;4.206;2022-09-09T06:52:37;12.07;;;5.90;;
58615;SDS011;44385;51.992;4.206;2022-09-09T06:55:05;12.02;;;6.43;;
58615;SDS011;44385;51.992;4.206;2022-09-09T06:57:31;9.73;;;6.40;;
58615;SDS011;44385;51.992;4.206;2022-09-09T06:59:58;12.82;;;6.40;;
58615;SDS011;44385;51.992;4.206;2022-09-09T07:02:24;8.63;;;6.80;;
58615;SDS011;44385;51.992;4.206;2022-09-09T07:04:51;13.50;;;6.03;;
58615;SDS011;44385;51.992;4.206;2022-09-09T07:07:17;11.45;;;5.80;;
58615;SDS011;44385;51.992;4.206;2022-09-09T07:09:44;9.98;;;5.65;;
58615;SDS011;44385;51.992;4.206;2022-09-09T07:12:12;12.60;;;6.28;;
58615;SDS011;44385;51.992;4.206;2022-09-09T07:14:38;18.42;;;6.57;;
58615;SDS011;44385;51.992;4.206;2022-09-09T07:17:04;13.88;;;6.07;;
58615;SDS011;44385;51.992;4.206;2022-09-09T07:19:31;11.90;;;5.65;;
58615;SDS011;44385;51.992;4.206;2022-09-09T07:21:57;13.77;;;6.22;;
58615;SDS011;44385;51.992;4.206;2022-09-09T07:24:23;14.95;;;6.20;;
58615;SDS011;44385;51.992;4.206;2022-09-09T07:26:50;10.63;;;5.97;;
58615;SDS011;44385;51.992;4.206;2022-09-09T07:29:18;12.27;;;6.25;;
58615;SDS011;44385;51.992;4.206;2022-09-09T07:31:44;13.07;;;6.18;;
58615;SDS011;44385;51.992;4.206;2022-09-09T07:34:11;12.32;;;6.35;;
58615;SDS011;44385;51.992;4.206;2022-09-09T07:36:38;11.20;;;6.53;;
58615;SDS011;44385;51.992;4.206;2022-09-09T07:39:05;16.17;;;6.22;;
58615;SDS011;44385;51.992;4.206;2022-09-09T07:41:33;13.75;;;5.57;;
58615;SDS011;44385;51.992;4.206;2022-09-09T07:44:03;13.07;;;5.93;;
58615;SDS011;44385;51.992;4.206;2022-09-09T07:48:58;9.73;;;6.05;;
58615;SDS011;44385;51.992;4.206;2022-09-09T07:51:25;11.82;;;5.43;;
58615;SDS011;44385;51.992;4.206;2022-09-09T07:53:53;13.80;;;5.90;;
58615;SDS011;44385;51.992;4.206;2022-09-09T07:56:19;11.48;;;5.65;;
58615;SDS011;44385;51.992;4.206;2022-09-09T07:58:48;15.25;;;5.93;;
58615;SDS011;44385;51.992;4.206;2022-09-09T08:01:18;10.00;;;5.63;;
58615;SDS011;44385;51.992;4.206;2022-09-09T08:03:46;11.25;;;5.85;;
58615;SDS011;44385;51.992;4.206;2022-09-09T08:06:14;12.07;;;5.45;;
58615;SDS011;44385;51.992;4.206;2022-09-09T08:08:41;11.73;;;5.50;;
58615;SDS011;44385;51.992;4.206;2022-09-09T08:11:13;11.98;;;5.80;;
58615;SDS011;44385;51.992;4.206;2022-09-09T08:13:40;14.93;;;5.07;;
58615;SDS011;44385;51.992;4.206;2022-09-09T08:16:07;13.68;;;5.65;;
58615;SDS011;44385;51.992;4.206;2022-09-09T08:18:35;9.02;;;4.82;;
58615;SDS011;44385;51.992;4.206;2022-09-09T08:21:06;15.90;;;5.35;;
58615;SDS011;44385;51.992;4.206;2022-09-09T08:23:34;10.50;;;4.50;;
58615;SDS011;44385;51.992;4.206;2022-09-09T08:26:05;12.50;;;5.10;;
58615;SDS011;44385;51.992;4.206;2022-09-09T08:28:31;9.50;;;4.90;;
58615;SDS011;44385;51.992;4.206;2022-09-09T08:31:04;8.93;;;4.90;;
58615;SDS011;44385;51.992;4.206;2022-09-09T08:33:31;7.38;;;5.00;;
58615;SDS011;44385;51.992;4.206;2022-09-09T08:35:58;11.65;;;5.07;;
58615;SDS011;44385;51.992;4.206;2022-09-09T08:38:24;11.18;;;5.75;;
58615;SDS011;44385;51.992;4.206;2022-09-09T08:40:52;16.67;;;5.68;;
58615;SDS011;44385;51.992;4.206;2022-09-09T08:43:24;13.15;;;4.88;;
58615;SDS011;44385;51.992;4.206;2022-09-09T08:45:55;11.07;;;5.57;;
58615;SDS011;44385;51.992;4.206;2022-09-09T08:48:28;11.27;;;5.63;;
58615;SDS011;44385;51.992;4.206;2022-09-09T08:50:56;11.02;;;5.88;;
58615;SDS011;44385;51.992;4.206;2022-09-09T08:53:27;11.43;;;5.32;;
58615;SDS011;44385;51.992;4.206;2022-09-09T08:55:57;12.13;;;5.50;;
58615;SDS011;44385;51.992;4.206;2022-09-09T08:58:25;9.52;;;5.47;;
58615;SDS011;44385;51.992;4.206;2022-09-09T09:01:02;6.80;;;4.05;;
58615;SDS011;44385;51.992;4.206;2022-09-09T09:03:34;7.60;;;5.43;;
58615;SDS011;44385;51.992;4.206;2022-09-09T09:06:04;9.00;;;4.95;;
58615;SDS011;44385;51.992;4.206;2022-09-09T09:08:35;9.02;;;5.30;;
58615;SDS011;44385;51.992;4.206;2022-09-09T09:11:05;10.75;;;6.07;;
58615;SDS011;44385;51.992;4.206;2022-09-09T09:13:33;7.70;;;6.18;;
58615;SDS011;44385;51.992;4.206;2022-09-09T09:16:03;9.30;;;5.45;;
58615;SDS011;44385;51.992;4.206;2022-09-09T09:18:32;9.25;;;5.72;;
58615;SDS011;44385;51.992;4.206;2022-09-09T09:21:00;13.52;;;6.78;;
58615;SDS011;44385;51.992;4.206;2022-09-09T09:23:32;9.80;;;5.63;;
58615;SDS011;44385;51.992;4.206;2022-09-09T09:26:06;9.80;;;5.22;;
58615;SDS011;44385;51.992;4.206;2022-09-09T09:28:35;10.07;;;5.15;;
58615;SDS011;44385;51.992;4.206;2022-09-09T09:31:03;14.10;;;5.38;;
58615;SDS011;44385;51.992;4.206;2022-09-09T09:33:31;12.18;;;6.10;;
58615;SDS011;44385;51.992;4.206;2022-09-09T09:35:59;10.68;;;5.32;;
58615;SDS011;44385;51.992;4.206;2022-09-09T09:38:27;9.70;;;5.70;;
58615;SDS011;44385;51.992;4.206;2022-09-09T09:40:54;10.30;;;5.30;;
58615;SDS011;44385;51.992;4.206;2022-09-09T09:43:25;9.77;;;5.32;;
58615;SDS011;44385;51.992;4.206;2022-09-09T09:45:52;15.20;;;6.70;;
58615;SDS011;44385;51.992;4.206;2022-09-09T09:48:19;12.95;;;6.95;;
58615;SDS011;44385;51.992;4.206;2022-09-09T09:50:49;10.85;;;5.85;;
58615;SDS011;44385;51.992;4.206;2022-09-09T09:53:17;9.32;;;6.70;;
58615;SDS011;44385;51.992;4.206;2022-09-09T09:55:46;11.57;;;6.45;;
58615;SDS011;44385;51.992;4.206;2022-09-09T09:58:15;10.48;;;6.93;;
58615;SDS011;44385;51.992;4.206;2022-09-09T10:00:48;11.18;;;6.95;;
58615;SDS011;44385;51.992;4.206;2022-09-09T10:03:19;13.63;;;7.60;;
58615;SDS011;44385;51.992;4.206;2022-09-09T10:05:47;12.25;;;5.88;;
58615;SDS011;44385;51.992;4.206;2022-09-09T10:08:14;9.13;;;5.97;;
58615;SDS011;44385;51.992;4.206;2022-09-09T10:10:52;11.10;;;5.75;;
58615;SDS011;44385;51.992;4.206;2022-09-09T10:13:24;15.20;;;7.00;;
58615;SDS011;44385;51.992;4.206;2022-09-09T10:15:56;14.93;;;7.53;;
58615;SDS011;44385;51.992;4.206;2022-09-09T10:18:30;15.18;;;7.15;;
58615;SDS011;44385;51.992;4.206;2022-09-09T10:21:00;10.82;;;6.95;;
58615;SDS011;44385;51.992;4.206;2022-09-09T10:23:31;15.05;;;8.32;;
58615;SDS011;44385;51.992;4.206;2022-09-09T10:26:05;16.63;;;8.43;;
58615;SDS011;44385;51.992;4.206;2022-09-09T10:28:42;11.60;;;9.00;;
58615;SDS011;44385;51.992;4.206;2022-09-09T10:31:19;15.77;;;8.88;;
58615;SDS011;44385;51.992;4.206;2022-09-09T10:33:50;12.73;;;7.32;;
58615;SDS011;44385;51.992;4.206;2022-09-09T10:36:18;6.53;;;4.57;;
58615;SDS011;44385;51.992;4.206;2022-09-09T10:38:46;8.35;;;4.32;;
58615;SDS011;44385;51.992;4.206;2022-09-09T10:41:15;7.55;;;3.88;;
58615;SDS011;44385;51.992;4.206;2022-09-09T10:43:56;8.98;;;3.88;;
58615;SDS011;44385;51.992;4.206;2022-09-09T10:46:29;14.00;;;4.22;;
58615;SDS011;44385;51.992;4.206;2022-09-09T10:49:03;8.75;;;3.20;;
58615;SDS011;44385;51.992;4.206;2022-09-09T10:51:33;8.88;;;3.80;;
58615;SDS011;44385;51.992;4.206;2022-09-09T10:54:11;6.72;;;3.10;;
58615;SDS011;44385;51.992;4.206;2022-09-09T10:56:40;8.75;;;3.90;;
58615;SDS011;44385;51.992;4.206;2022-09-09T10:59:12;6.45;;;3.80;;
58615;SDS011;44385;51.992;4.206;2022-09-09T11:01:43;6.00;;;2.70;;
58615;SDS011;44385;51.992;4.206;2022-09-09T11:04:10;5.93;;;2.90;;
58615;SDS011;44385;51.992;4.206;2022-09-09T11:06:41;8.07;;;3.40;;
58615;SDS011;44385;51.992;4.206;2022-09-09T11:09:10;5.47;;;3.60;;
58615;SDS011;44385;51.992;4.206;2022-09-09T11:11:41;6.85;;;3.13;;
58615;SDS011;44385;51.992;4.206;2022-09-09T11:14:12;6.07;;;3.03;;
58615;SDS011;44385;51.992;4.206;2022-09-09T11:16:44;8.20;;;3.83;;
58615;SDS011;44385;51.992;4.206;2022-09-09T11:19:14;5.43;;;2.88;;
58615;SDS011;44385;51.992;4.206;2022-09-09T11:21:44;8.77;;;3.45;;
58615;SDS011;44385;51.992;4.206;2022-09-09T11:24:12;5.65;;;3.17;;
58615;SDS011;44385;51.992;4.206;2022-09-09T11:26:43;9.27;;;4.07;;
58615;SDS011;44385;51.992;4.206;2022-09-09T11:29:20;11.48;;;3.70;;
58615;SDS011;44385;51.992;4.206;2022-09-09T11:31:53;10.10;;;4.90;;
58615;SDS011;44385;51.992;4.206;2022-09-09T11:34:31;8.77;;;3.70;;
58615;SDS011;44385;51.992;4.206;2022-09-09T11:37:06;4.35;;;2.58;;
58615;SDS011;44385;51.992;4.206;2022-09-09T11:39:43;4.47;;;1.85;;
58615;SDS011;44385;51.992;4.206;2022-09-09T11:42:15;5.55;;;3.13;;
58615;SDS011;44385;51.992;4.206;2022-09-09T11:44:42;7.45;;;3.00;;
58615;SDS011;44385;51.992;4.206;2022-09-09T11:47:16;8.27;;;3.75;;
58615;SDS011;44385;51.992;4.206;2022-09-09T11:49:45;6.82;;;3.13;;
58615;SDS011;44385;51.992;4.206;2022-09-09T11:52:11;5.57;;;2.83;;
58615;SDS011;44385;51.992;4.206;2022-09-09T11:54:45;4.60;;;2.95;;
58615;SDS011;44385;51.992;4.206;2022-09-09T11:57:16;7.40;;;2.88;;
58615;SDS011;44385;51.992;4.206;2022-09-09T11:59:50;6.40;;;3.40;;
58615;SDS011;44385;51.992;4.206;2022-09-09T12:02:21;6.13;;;3.20;;
58615;SDS011;44385;51.992;4.206;2022-09-09T12:04:49;6.25;;;3.38;;
58615;SDS011;44385;51.992;4.206;2022-09-09T12:07:25;6.60;;;3.35;;
58615;SDS011;44385;51.992;4.206;2022-09-09T12:09:55;8.75;;;3.80;;
58615;SDS011;44385;51.992;4.206;2022-09-09T12:12:24;6.65;;;3.90;;
58615;SDS011;44385;51.992;4.206;2022-09-09T12:17:42;5.45;;;4.32;;
58615;SDS011;44385;51.992;4.206;2022-09-09T12:20:11;6.72;;;4.88;;
58615;SDS011;44385;51.992;4.206;2022-09-09T12:22:41;11.07;;;4.90;;
58615;SDS011;44385;51.992;4.206;2022-09-09T12:25:15;7.50;;;4.70;;
58615;SDS011;44385;51.992;4.206;2022-09-09T12:27:43;7.10;;;4.00;;
58615;SDS011;44385;51.992;4.206;2022-09-09T12:30:11;7.78;;;3.05;;
58615;SDS011;44385;51.992;4.206;2022-09-09T12:32:38;6.30;;;3.50;;
58615;SDS011;44385;51.992;4.206;2022-09-09T12:35:09;9.43;;;3.88;;
58615;SDS011;44385;51.992;4.206;2022-09-09T12:37:37;5.72;;;3.03;;
58615;SDS011;44385;51.992;4.206;2022-09-09T12:40:05;5.03;;;3.15;;
58615;SDS011;44385;51.992;4.206;2022-09-09T12:42:31;3.85;;;2.50;;
58615;SDS011;44385;51.992;4.206;2022-09-09T12:44:59;7.72;;;2.97;;
58615;SDS011;44385;51.992;4.206;2022-09-09T12:47:29;7.38;;;2.63;;
58615;SDS011;44385;51.992;4.206;2022-09-09T12:49:58;6.45;;;3.05;;
58615;SDS011;44385;51.992;4.206;2022-09-09T12:52:27;7.95;;;3.05;;
58615;SDS011;44385;51.992;4.206;2022-09-09T12:54:55;6.47;;;2.70;;
58615;SDS011;44385;51.992;4.206;2022-09-09T12:57:22;8.15;;;2.65;;
58615;SDS011;44385;51.992;4.206;2022-09-09T12:59:50;9.77;;;3.53;;
58615;SDS011;44385;51.992;4.206;2022-09-09T13:02:19;13.23;;;3.88;;
58615;SDS011;44385;51.992;4.206;2022-09-09T13:04:46;9.57;;;3.90;;
58615;SDS011;44385;51.992;4.206;2022-09-09T13:07:16;5.25;;;3.80;;
58615;SDS011;44385;51.992;4.206;2022-09-09T13:09:44;7.50;;;3.38;;
58615;SDS011;44385;51.992;4.206;2022-09-09T13:12:12;11.25;;;2.90;;
58615;SDS011;44385;51.992;4.206;2022-09-09T13:14:39;10.60;;;3.10;;
58615;SDS011;44385;51.992;4.206;2022-09-09T13:19:36;7.75;;;2.20;;
58615;SDS011;44385;51.992;4.206;2022-09-09T13:22:11;4.82;;;2.25;;
58615;SDS011;44385;51.992;4.206;2022-09-09T13:24:38;8.88;;;2.83;;
58615;SDS011;44385;51.992;4.206;2022-09-09T13:27:20;8.95;;;2.97;;
58615;SDS011;44385;51.992;4.206;2022-09-09T13:29:50;12.52;;;2.50;;
58615;SDS011;44385;51.992;4.206;2022-09-09T13:32:20;10.20;;;2.00;;
58615;SDS011;44385;51.992;4.206;2022-09-09T13:34:50;14.30;;;3.28;;
58615;SDS011;44385;51.992;4.206;2022-09-09T13:37:19;10.55;;;2.60;;
58615;SDS011;44385;51.992;4.206;2022-09-09T13:39:50;11.57;;;3.58;;
58615;SDS011;44385;51.992;4.206;2022-09-09T13:42:23;11.93;;;3.63;;
58615;SDS011;44385;51.992;4.206;2022-09-09T13:44:51;13.80;;;4.93;;
58615;SDS011;44385;51.992;4.206;2022-09-09T13:47:18;12.88;;;4.53;;
58615;SDS011;44385;51.992;4.206;2022-09-09T13:49:45;11.93;;;4.80;;
58615;SDS011;44385;51.992;4.206;2022-09-09T13:52:12;11.68;;;3.35;;
58615;SDS011;44385;51.992;4.206;2022-09-09T13:54:40;11.27;;;3.83;;
58615;SDS011;44385;51.992;4.206;2022-09-09T13:57:13;7.22;;;3.40;;
58615;SDS011;44385;51.992;4.206;2022-09-09T13:59:41;11.98;;;3.60;;
58615;SDS011;44385;51.992;4.206;2022-09-09T14:02:11;9.63;;;2.80;;
58615;SDS011;44385;51.992;4.206;2022-09-09T14:04:37;10.25;;;2.83;;
58615;SDS011;44385;51.992;4.206;2022-09-09T14:07:07;7.97;;;2.33;;
58615;SDS011;44385;51.992;4.206;2022-09-09T14:09:35;9.27;;;2.08;;
58615;SDS011;44385;51.992;4.206;2022-09-09T14:12:02;7.05;;;2.08;;
58615;SDS011;44385;51.992;4.206;2022-09-09T14:14:29;5.82;;;1.95;;
58615;SDS011;44385;51.992;4.206;2022-09-09T14:16:57;4.63;;;1.35;;
58615;SDS011;44385;51.992;4.206;2022-09-09T14:19:23;6.55;;;1.60;;
58615;SDS011;44385;51.992;4.206;2022-09-09T14:21:50;2.30;;;1.25;;
58615;SDS011;44385;51.992;4.206;2022-09-09T14:24:17;5.20;;;1.90;;
58615;SDS011;44385;51.992;4.206;2022-09-09T14:26:43;7.20;;;2.20;;
58615;SDS011;44385;51.992;4.206;2022-09-09T14:29:10;8.10;;;2.25;;
58615;SDS011;44385;51.992;4.206;2022-09-09T14:31:37;6.35;;;2.10;;
58615;SDS011;44385;51.992;4.206;2022-09-09T14:34:05;9.00;;;2.40;;
58615;SDS011;44385;51.992;4.206;2022-09-09T14:36:31;7.30;;;2.42;;
58615;SDS011;44385;51.992;4.206;2022-09-09T14:38:58;4.90;;;2.20;;
58615;SDS011;44385;51.992;4.206;2022-09-09T14:41:24;9.73;;;2.83;;
58615;SDS011;44385;51.992;4.206;2022-09-09T14:43:51;7.28;;;2.75;;
58615;SDS011;44385;51.992;4.206;2022-09-09T14:46:21;6.70;;;2.00;;
58615;SDS011;44385;51.992;4.206;2022-09-09T14:51:17;8.73;;;2.10;;
58615;SDS011;44385;51.992;4.206;2022-09-09T14:53:44;10.07;;;2.50;;
58615;SDS011;44385;51.992;4.206;2022-09-09T14:56:12;6.97;;;2.50;;
58615;SDS011;44385;51.992;4.206;2022-09-09T14:58:39;4.68;;;2.00;;
58615;SDS011;44385;51.992;4.206;2022-09-09T15:01:06;7.30;;;2.28;;
58615;SDS011;44385;51.992;4.206;2022-09-09T15:03:32;8.40;;;2.67;;